sensor_id;sensor_type;location;lat;lon;timestamp;P1;durP1;ratioP1;P2;durP2;ratioP2
48526;SDS011;34317;51.660;5.824;2023-07-02T00:00:12;14.27;;;5.50;;
48526;SDS011;34317;51.660;5.824;2023-07-02T00:02:39;9.80;;;5.22;;
48526;SDS011;34317;51.660;5.824;2023-07-02T00:05:07;8.93;;;5.30;;
48526;SDS011;34317;51.660;5.824;2023-07-02T00:07:34;13.77;;;5.65;;
48526;SDS011;34317;51.660;5.824;2023-07-02T00:10:04;14.35;;;5.68;;
48526;SDS011;34317;51.660;5.824;2023-07-02T00:12:32;12.20;;;6.47;;
48526;SDS011;34317;51.660;5.824;2023-07-02T00:15:00;11.00;;;5.95;;
48526;SDS011;34317;51.660;5.824;2023-07-02T00:17:28;12.45;;;5.88;;
48526;SDS011;34317;51.660;5.824;2023-07-02T00:19:55;13.00;;;6.50;;
48526;SDS011;34317;51.660;5.824;2023-07-02T00:22:22;12.05;;;6.07;;
48526;SDS011;34317;51.660;5.824;2023-07-02T00:24:49;12.63;;;5.95;;
48526;SDS011;34317;51.660;5.824;2023-07-02T00:27:18;12.05;;;5.95;;
48526;SDS011;34317;51.660;5.824;2023-07-02T00:29:45;9.32;;;5.65;;
48526;SDS011;34317;51.660;5.824;2023-07-02T00:32:13;13.25;;;5.85;;
48526;SDS011;34317;51.660;5.824;2023-07-02T00:34:40;12.38;;;5.95;;
48526;SDS011;34317;51.660;5.824;2023-07-02T00:37:07;11.00;;;5.65;;
48526;SDS011;34317;51.660;5.824;2023-07-02T00:39:35;13.60;;;5.90;;
48526;SDS011;34317;51.660;5.824;2023-07-02T00:42:02;11.82;;;5.80;;
48526;SDS011;34317;51.660;5.824;2023-07-02T00:44:30;15.75;;;6.45;;
48526;SDS011;34317;51.660;5.824;2023-07-02T00:46:57;14.27;;;6.43;;
48526;SDS011;34317;51.660;5.824;2023-07-02T00:49:25;13.95;;;5.95;;
48526;SDS011;34317;51.660;5.824;2023-07-02T00:51:52;12.43;;;6.00;;
48526;SDS011;34317;51.660;5.824;2023-07-02T00:54:20;12.82;;;6.57;;
48526;SDS011;34317;51.660;5.824;2023-07-02T00:56:48;11.52;;;6.40;;
48526;SDS011;34317;51.660;5.824;2023-07-02T00:59:15;13.55;;;6.97;;
48526;SDS011;34317;51.660;5.824;2023-07-02T01:01:42;18.10;;;7.18;;
48526;SDS011;34317;51.660;5.824;2023-07-02T01:04:09;16.40;;;7.07;;
48526;SDS011;34317;51.660;5.824;2023-07-02T01:06:39;15.60;;;6.60;;
48526;SDS011;34317;51.660;5.824;2023-07-02T01:09:10;11.50;;;6.32;;
48526;SDS011;34317;51.660;5.824;2023-07-02T01:11:46;14.48;;;7.15;;
48526;SDS011;34317;51.660;5.824;2023-07-02T01:14:18;16.60;;;7.63;;
48526;SDS011;34317;51.660;5.824;2023-07-02T01:19:21;14.15;;;7.32;;
48526;SDS011;34317;51.660;5.824;2023-07-02T01:22:07;17.95;;;8.13;;
48526;SDS011;34317;51.660;5.824;2023-07-02T01:24:35;15.40;;;7.88;;
48526;SDS011;34317;51.660;5.824;2023-07-02T01:27:06;20.02;;;8.60;;
48526;SDS011;34317;51.660;5.824;2023-07-02T01:29:33;17.42;;;8.00;;
48526;SDS011;34317;51.660;5.824;2023-07-02T01:32:04;16.15;;;8.07;;
48526;SDS011;34317;51.660;5.824;2023-07-02T01:34:32;17.08;;;8.05;;
48526;SDS011;34317;51.660;5.824;2023-07-02T01:36:59;18.45;;;8.07;;
48526;SDS011;34317;51.660;5.824;2023-07-02T01:39:27;17.58;;;7.93;;
48526;SDS011;34317;51.660;5.824;2023-07-02T01:41:56;16.38;;;8.52;;
48526;SDS011;34317;51.660;5.824;2023-07-02T01:44:35;17.58;;;8.13;;
48526;SDS011;34317;51.660;5.824;2023-07-02T01:47:02;17.70;;;8.27;;
48526;SDS011;34317;51.660;5.824;2023-07-02T01:49:30;18.80;;;9.52;;
48526;SDS011;34317;51.660;5.824;2023-07-02T01:51:58;19.83;;;9.30;;
48526;SDS011;34317;51.660;5.824;2023-07-02T01:54:27;17.00;;;8.52;;
48526;SDS011;34317;51.660;5.824;2023-07-02T01:56:55;20.67;;;8.88;;
48526;SDS011;34317;51.660;5.824;2023-07-02T01:59:23;19.40;;;7.88;;
48526;SDS011;34317;51.660;5.824;2023-07-02T02:01:51;17.55;;;7.60;;
48526;SDS011;34317;51.660;5.824;2023-07-02T02:04:19;17.00;;;7.82;;
48526;SDS011;34317;51.660;5.824;2023-07-02T02:06:46;17.45;;;8.23;;
48526;SDS011;34317;51.660;5.824;2023-07-02T02:09:13;16.60;;;8.10;;
48526;SDS011;34317;51.660;5.824;2023-07-02T02:11:42;15.60;;;7.57;;
48526;SDS011;34317;51.660;5.824;2023-07-02T02:14:10;18.25;;;8.15;;
48526;SDS011;34317;51.660;5.824;2023-07-02T02:16:38;21.05;;;8.18;;
48526;SDS011;34317;51.660;5.824;2023-07-02T02:19:05;16.88;;;8.20;;
48526;SDS011;34317;51.660;5.824;2023-07-02T02:21:32;19.88;;;8.52;;
48526;SDS011;34317;51.660;5.824;2023-07-02T02:24:00;19.27;;;9.20;;
48526;SDS011;34317;51.660;5.824;2023-07-02T02:26:27;16.55;;;8.85;;
48526;SDS011;34317;51.660;5.824;2023-07-02T02:28:54;25.85;;;10.55;;
48526;SDS011;34317;51.660;5.824;2023-07-02T02:31:21;20.17;;;9.50;;
48526;SDS011;34317;51.660;5.824;2023-07-02T02:33:48;23.95;;;10.00;;
48526;SDS011;34317;51.660;5.824;2023-07-02T02:36:17;24.63;;;11.10;;
48526;SDS011;34317;51.660;5.824;2023-07-02T02:38:44;24.25;;;10.93;;
48526;SDS011;34317;51.660;5.824;2023-07-02T02:41:13;23.67;;;11.13;;
48526;SDS011;34317;51.660;5.824;2023-07-02T02:43:46;23.10;;;11.02;;
48526;SDS011;34317;51.660;5.824;2023-07-02T02:46:20;23.67;;;11.13;;
48526;SDS011;34317;51.660;5.824;2023-07-02T02:48:49;21.40;;;10.10;;
48526;SDS011;34317;51.660;5.824;2023-07-02T02:51:16;22.17;;;10.70;;
48526;SDS011;34317;51.660;5.824;2023-07-02T02:53:44;24.55;;;10.85;;
48526;SDS011;34317;51.660;5.824;2023-07-02T02:56:11;27.67;;;11.75;;
48526;SDS011;34317;51.660;5.824;2023-07-02T02:58:38;22.80;;;10.85;;
48526;SDS011;34317;51.660;5.824;2023-07-02T03:01:06;23.55;;;11.13;;
48526;SDS011;34317;51.660;5.824;2023-07-02T03:03:40;24.27;;;11.52;;
48526;SDS011;34317;51.660;5.824;2023-07-02T03:06:12;22.37;;;10.87;;
48526;SDS011;34317;51.660;5.824;2023-07-02T03:08:41;23.35;;;11.02;;
48526;SDS011;34317;51.660;5.824;2023-07-02T03:11:08;22.63;;;10.93;;
48526;SDS011;34317;51.660;5.824;2023-07-02T03:13:36;24.65;;;11.32;;
48526;SDS011;34317;51.660;5.824;2023-07-02T03:16:03;22.35;;;11.60;;
48526;SDS011;34317;51.660;5.824;2023-07-02T03:18:31;22.92;;;11.52;;
48526;SDS011;34317;51.660;5.824;2023-07-02T03:20:59;23.85;;;11.18;;
48526;SDS011;34317;51.660;5.824;2023-07-02T03:23:26;24.90;;;11.27;;
48526;SDS011;34317;51.660;5.824;2023-07-02T03:25:53;22.63;;;11.55;;
48526;SDS011;34317;51.660;5.824;2023-07-02T03:28:20;26.48;;;11.52;;
48526;SDS011;34317;51.660;5.824;2023-07-02T03:30:48;18.00;;;10.75;;
48526;SDS011;34317;51.660;5.824;2023-07-02T03:33:15;23.40;;;10.27;;
48526;SDS011;34317;51.660;5.824;2023-07-02T03:35:42;23.73;;;10.57;;
48526;SDS011;34317;51.660;5.824;2023-07-02T03:38:10;28.50;;;11.15;;
48526;SDS011;34317;51.660;5.824;2023-07-02T03:40:37;23.17;;;11.20;;
48526;SDS011;34317;51.660;5.824;2023-07-02T03:43:05;26.67;;;12.18;;
48526;SDS011;34317;51.660;5.824;2023-07-02T03:45:32;22.10;;;10.35;;
48526;SDS011;34317;51.660;5.824;2023-07-02T03:48:00;22.75;;;11.02;;
48526;SDS011;34317;51.660;5.824;2023-07-02T03:50:27;26.88;;;10.75;;
48526;SDS011;34317;51.660;5.824;2023-07-02T03:52:54;24.23;;;10.95;;
48526;SDS011;34317;51.660;5.824;2023-07-02T03:55:21;25.88;;;10.25;;
48526;SDS011;34317;51.660;5.824;2023-07-02T03:57:48;24.08;;;11.40;;
48526;SDS011;34317;51.660;5.824;2023-07-02T04:00:16;23.42;;;11.40;;
48526;SDS011;34317;51.660;5.824;2023-07-02T04:02:43;25.35;;;11.23;;
48526;SDS011;34317;51.660;5.824;2023-07-02T04:05:10;28.38;;;11.88;;
48526;SDS011;34317;51.660;5.824;2023-07-02T04:07:37;25.05;;;11.45;;
48526;SDS011;34317;51.660;5.824;2023-07-02T04:10:05;21.92;;;10.90;;
48526;SDS011;34317;51.660;5.824;2023-07-02T04:12:33;24.27;;;11.52;;
48526;SDS011;34317;51.660;5.824;2023-07-02T04:15:00;24.20;;;11.93;;
48526;SDS011;34317;51.660;5.824;2023-07-02T04:17:27;24.13;;;11.63;;
48526;SDS011;34317;51.660;5.824;2023-07-02T04:19:54;25.20;;;11.80;;
48526;SDS011;34317;51.660;5.824;2023-07-02T04:22:22;25.50;;;11.85;;
48526;SDS011;34317;51.660;5.824;2023-07-02T04:24:49;24.60;;;11.77;;
48526;SDS011;34317;51.660;5.824;2023-07-02T04:27:21;26.05;;;11.57;;
48526;SDS011;34317;51.660;5.824;2023-07-02T04:30:09;24.55;;;11.65;;
48526;SDS011;34317;51.660;5.824;2023-07-02T04:32:39;27.80;;;11.43;;
48526;SDS011;34317;51.660;5.824;2023-07-02T04:35:07;25.60;;;11.30;;
48526;SDS011;34317;51.660;5.824;2023-07-02T04:37:35;29.35;;;12.27;;
48526;SDS011;34317;51.660;5.824;2023-07-02T04:40:03;31.20;;;12.45;;
48526;SDS011;34317;51.660;5.824;2023-07-02T04:42:33;23.85;;;12.27;;
48526;SDS011;34317;51.660;5.824;2023-07-02T04:45:04;30.17;;;12.40;;
48526;SDS011;34317;51.660;5.824;2023-07-02T04:47:32;27.83;;;12.48;;
48526;SDS011;34317;51.660;5.824;2023-07-02T04:50:00;26.95;;;12.23;;
48526;SDS011;34317;51.660;5.824;2023-07-02T04:52:27;23.23;;;11.27;;
48526;SDS011;34317;51.660;5.824;2023-07-02T04:54:54;23.23;;;11.52;;
48526;SDS011;34317;51.660;5.824;2023-07-02T04:57:23;24.35;;;11.98;;
48526;SDS011;34317;51.660;5.824;2023-07-02T04:59:50;23.05;;;11.55;;
48526;SDS011;34317;51.660;5.824;2023-07-02T05:02:17;25.05;;;11.68;;
48526;SDS011;34317;51.660;5.824;2023-07-02T05:04:44;23.65;;;11.68;;
48526;SDS011;34317;51.660;5.824;2023-07-02T05:07:12;22.75;;;11.50;;
48526;SDS011;34317;51.660;5.824;2023-07-02T05:09:39;25.08;;;12.23;;
48526;SDS011;34317;51.660;5.824;2023-07-02T05:12:06;27.90;;;11.55;;
48526;SDS011;34317;51.660;5.824;2023-07-02T05:14:33;25.23;;;11.10;;
48526;SDS011;34317;51.660;5.824;2023-07-02T05:17:01;25.85;;;11.88;;
48526;SDS011;34317;51.660;5.824;2023-07-02T05:19:28;24.55;;;11.40;;
48526;SDS011;34317;51.660;5.824;2023-07-02T05:21:55;25.52;;;11.65;;
48526;SDS011;34317;51.660;5.824;2023-07-02T05:24:23;26.02;;;11.38;;
48526;SDS011;34317;51.660;5.824;2023-07-02T05:26:50;28.10;;;11.55;;
48526;SDS011;34317;51.660;5.824;2023-07-02T05:29:17;24.13;;;10.75;;
48526;SDS011;34317;51.660;5.824;2023-07-02T05:31:45;22.48;;;10.00;;
48526;SDS011;34317;51.660;5.824;2023-07-02T05:34:13;20.85;;;9.73;;
48526;SDS011;34317;51.660;5.824;2023-07-02T05:36:40;22.00;;;9.55;;
48526;SDS011;34317;51.660;5.824;2023-07-02T05:39:07;23.83;;;9.68;;
48526;SDS011;34317;51.660;5.824;2023-07-02T05:41:34;21.10;;;9.15;;
48526;SDS011;34317;51.660;5.824;2023-07-02T05:44:01;19.00;;;8.85;;
48526;SDS011;34317;51.660;5.824;2023-07-02T05:46:29;17.77;;;8.80;;
48526;SDS011;34317;51.660;5.824;2023-07-02T05:48:56;20.25;;;8.85;;
48526;SDS011;34317;51.660;5.824;2023-07-02T05:51:24;21.58;;;8.10;;
48526;SDS011;34317;51.660;5.824;2023-07-02T05:53:51;23.98;;;9.05;;
48526;SDS011;34317;51.660;5.824;2023-07-02T05:56:18;20.40;;;7.70;;
48526;SDS011;34317;51.660;5.824;2023-07-02T05:58:46;19.15;;;7.97;;
48526;SDS011;34317;51.660;5.824;2023-07-02T06:01:15;17.67;;;8.00;;
48526;SDS011;34317;51.660;5.824;2023-07-02T06:03:42;17.95;;;8.10;;
48526;SDS011;34317;51.660;5.824;2023-07-02T06:06:12;20.67;;;8.25;;
48526;SDS011;34317;51.660;5.824;2023-07-02T06:08:39;17.58;;;7.38;;
48526;SDS011;34317;51.660;5.824;2023-07-02T06:11:06;17.08;;;6.85;;
48526;SDS011;34317;51.660;5.824;2023-07-02T06:13:33;17.80;;;7.25;;
48526;SDS011;34317;51.660;5.824;2023-07-02T06:16:00;17.70;;;7.18;;
48526;SDS011;34317;51.660;5.824;2023-07-02T06:18:28;16.40;;;6.78;;
48526;SDS011;34317;51.660;5.824;2023-07-02T06:20:55;18.42;;;6.78;;
48526;SDS011;34317;51.660;5.824;2023-07-02T06:23:22;16.08;;;7.25;;
48526;SDS011;34317;51.660;5.824;2023-07-02T06:25:49;15.18;;;6.63;;
48526;SDS011;34317;51.660;5.824;2023-07-02T06:28:19;19.38;;;6.38;;
48526;SDS011;34317;51.660;5.824;2023-07-02T06:30:47;17.77;;;7.00;;
48526;SDS011;34317;51.660;5.824;2023-07-02T06:33:15;17.92;;;7.07;;
48526;SDS011;34317;51.660;5.824;2023-07-02T06:35:42;14.30;;;6.47;;
48526;SDS011;34317;51.660;5.824;2023-07-02T06:38:09;17.42;;;6.18;;
48526;SDS011;34317;51.660;5.824;2023-07-02T06:40:36;16.02;;;6.13;;
48526;SDS011;34317;51.660;5.824;2023-07-02T06:43:03;13.95;;;6.00;;
48526;SDS011;34317;51.660;5.824;2023-07-02T06:45:30;17.20;;;6.10;;
48526;SDS011;34317;51.660;5.824;2023-07-02T06:47:57;13.18;;;6.05;;
48526;SDS011;34317;51.660;5.824;2023-07-02T06:50:25;13.00;;;5.90;;
48526;SDS011;34317;51.660;5.824;2023-07-02T06:52:52;15.32;;;5.90;;
48526;SDS011;34317;51.660;5.824;2023-07-02T06:55:19;16.58;;;5.43;;
48526;SDS011;34317;51.660;5.824;2023-07-02T06:57:46;15.05;;;5.90;;
48526;SDS011;34317;51.660;5.824;2023-07-02T07:00:14;13.52;;;5.53;;
48526;SDS011;34317;51.660;5.824;2023-07-02T07:02:41;13.13;;;5.57;;
48526;SDS011;34317;51.660;5.824;2023-07-02T07:05:09;11.90;;;4.75;;
48526;SDS011;34317;51.660;5.824;2023-07-02T07:07:36;14.98;;;5.15;;
48526;SDS011;34317;51.660;5.824;2023-07-02T07:10:04;12.25;;;4.60;;
48526;SDS011;34317;51.660;5.824;2023-07-02T07:12:31;13.80;;;4.88;;
48526;SDS011;34317;51.660;5.824;2023-07-02T07:14:59;12.07;;;4.55;;
48526;SDS011;34317;51.660;5.824;2023-07-02T07:17:26;11.07;;;4.32;;
48526;SDS011;34317;51.660;5.824;2023-07-02T07:19:53;14.05;;;4.60;;
48526;SDS011;34317;51.660;5.824;2023-07-02T07:22:21;12.57;;;5.00;;
48526;SDS011;34317;51.660;5.824;2023-07-02T07:24:48;12.15;;;4.85;;
48526;SDS011;34317;51.660;5.824;2023-07-02T07:27:15;11.10;;;4.07;;
48526;SDS011;34317;51.660;5.824;2023-07-02T07:29:42;12.57;;;4.88;;
48526;SDS011;34317;51.660;5.824;2023-07-02T07:32:10;11.93;;;4.65;;
48526;SDS011;34317;51.660;5.824;2023-07-02T07:34:37;13.07;;;4.93;;
48526;SDS011;34317;51.660;5.824;2023-07-02T07:37:04;15.00;;;5.32;;
48526;SDS011;34317;51.660;5.824;2023-07-02T07:39:32;11.30;;;5.10;;
48526;SDS011;34317;51.660;5.824;2023-07-02T07:41:59;14.20;;;5.35;;
48526;SDS011;34317;51.660;5.824;2023-07-02T07:44:26;12.52;;;5.30;;
48526;SDS011;34317;51.660;5.824;2023-07-02T07:46:57;12.93;;;5.40;;
48526;SDS011;34317;51.660;5.824;2023-07-02T07:49:24;12.18;;;5.55;;
48526;SDS011;34317;51.660;5.824;2023-07-02T07:51:52;16.00;;;5.90;;
48526;SDS011;34317;51.660;5.824;2023-07-02T07:54:19;14.13;;;4.82;;
48526;SDS011;34317;51.660;5.824;2023-07-02T07:56:46;16.00;;;5.38;;
48526;SDS011;34317;51.660;5.824;2023-07-02T07:59:13;11.25;;;5.15;;
48526;SDS011;34317;51.660;5.824;2023-07-02T08:01:41;11.10;;;5.10;;
48526;SDS011;34317;51.660;5.824;2023-07-02T08:04:08;10.90;;;5.40;;
48526;SDS011;34317;51.660;5.824;2023-07-02T08:06:36;13.75;;;5.70;;
48526;SDS011;34317;51.660;5.824;2023-07-02T08:09:03;10.68;;;5.07;;
48526;SDS011;34317;51.660;5.824;2023-07-02T08:11:30;14.00;;;5.40;;
48526;SDS011;34317;51.660;5.824;2023-07-02T08:13:57;14.23;;;5.20;;
48526;SDS011;34317;51.660;5.824;2023-07-02T08:16:25;11.82;;;5.07;;
48526;SDS011;34317;51.660;5.824;2023-07-02T08:18:52;9.35;;;4.57;;
48526;SDS011;34317;51.660;5.824;2023-07-02T08:21:19;12.23;;;5.35;;
48526;SDS011;34317;51.660;5.824;2023-07-02T08:23:46;11.82;;;4.70;;
48526;SDS011;34317;51.660;5.824;2023-07-02T08:26:14;14.10;;;5.25;;
48526;SDS011;34317;51.660;5.824;2023-07-02T08:28:41;11.07;;;4.72;;
48526;SDS011;34317;51.660;5.824;2023-07-02T08:31:08;12.90;;;4.88;;
48526;SDS011;34317;51.660;5.824;2023-07-02T08:33:35;13.40;;;4.75;;
48526;SDS011;34317;51.660;5.824;2023-07-02T08:36:03;11.68;;;4.88;;
48526;SDS011;34317;51.660;5.824;2023-07-02T08:38:30;7.90;;;4.30;;
48526;SDS011;34317;51.660;5.824;2023-07-02T08:40:57;11.38;;;5.35;;
48526;SDS011;34317;51.660;5.824;2023-07-02T08:43:25;9.73;;;4.32;;
48526;SDS011;34317;51.660;5.824;2023-07-02T08:45:54;10.93;;;5.05;;
48526;SDS011;34317;51.660;5.824;2023-07-02T08:48:21;10.30;;;4.80;;
48526;SDS011;34317;51.660;5.824;2023-07-02T08:50:50;12.73;;;4.70;;
48526;SDS011;34317;51.660;5.824;2023-07-02T08:53:18;14.55;;;4.70;;
48526;SDS011;34317;51.660;5.824;2023-07-02T08:55:46;11.15;;;4.55;;
48526;SDS011;34317;51.660;5.824;2023-07-02T08:58:14;11.27;;;4.90;;
48526;SDS011;34317;51.660;5.824;2023-07-02T09:01:03;11.93;;;4.32;;
48526;SDS011;34317;51.660;5.824;2023-07-02T09:03:32;11.15;;;4.70;;
48526;SDS011;34317;51.660;5.824;2023-07-02T09:06:00;10.73;;;4.60;;
48526;SDS011;34317;51.660;5.824;2023-07-02T09:08:27;10.45;;;4.70;;
48526;SDS011;34317;51.660;5.824;2023-07-02T09:11:08;11.95;;;4.45;;
48526;SDS011;34317;51.660;5.824;2023-07-02T09:13:50;8.80;;;4.30;;
48526;SDS011;34317;51.660;5.824;2023-07-02T09:16:27;12.40;;;4.30;;
48526;SDS011;34317;51.660;5.824;2023-07-02T09:19:04;10.73;;;4.78;;
48526;SDS011;34317;51.660;5.824;2023-07-02T09:21:42;9.90;;;4.10;;
48526;SDS011;34317;51.660;5.824;2023-07-02T09:24:16;8.80;;;4.30;;
48526;SDS011;34317;51.660;5.824;2023-07-02T09:26:46;12.82;;;4.82;;
48526;SDS011;34317;51.660;5.824;2023-07-02T09:29:18;11.48;;;4.85;;
48526;SDS011;34317;51.660;5.824;2023-07-02T09:32:06;9.98;;;4.68;;
48526;SDS011;34317;51.660;5.824;2023-07-02T09:34:38;14.20;;;4.95;;
48526;SDS011;34317;51.660;5.824;2023-07-02T09:37:07;11.80;;;5.22;;
48526;SDS011;34317;51.660;5.824;2023-07-02T09:39:35;13.23;;;4.80;;
48526;SDS011;34317;51.660;5.824;2023-07-02T09:42:05;15.10;;;4.82;;
48526;SDS011;34317;51.660;5.824;2023-07-02T09:44:34;9.55;;;4.22;;
48526;SDS011;34317;51.660;5.824;2023-07-02T09:47:02;11.45;;;4.72;;
48526;SDS011;34317;51.660;5.824;2023-07-02T09:49:33;9.68;;;4.15;;
48526;SDS011;34317;51.660;5.824;2023-07-02T09:52:06;11.98;;;4.78;;
48526;SDS011;34317;51.660;5.824;2023-07-02T09:54:35;10.60;;;4.72;;
48526;SDS011;34317;51.660;5.824;2023-07-02T09:57:04;11.45;;;4.70;;
48526;SDS011;34317;51.660;5.824;2023-07-02T09:59:33;12.32;;;4.68;;
48526;SDS011;34317;51.660;5.824;2023-07-02T10:02:00;11.13;;;4.95;;
48526;SDS011;34317;51.660;5.824;2023-07-02T10:04:28;12.25;;;4.35;;
48526;SDS011;34317;51.660;5.824;2023-07-02T10:07:07;13.07;;;4.45;;
48526;SDS011;34317;51.660;5.824;2023-07-02T10:09:37;14.75;;;4.88;;
48526;SDS011;34317;51.660;5.824;2023-07-02T10:12:19;12.93;;;4.75;;
48526;SDS011;34317;51.660;5.824;2023-07-02T10:14:49;12.93;;;4.88;;
48526;SDS011;34317;51.660;5.824;2023-07-02T10:17:27;10.20;;;4.93;;
48526;SDS011;34317;51.660;5.824;2023-07-02T10:19:57;9.63;;;4.28;;
48526;SDS011;34317;51.660;5.824;2023-07-02T10:22:46;12.18;;;4.55;;
48526;SDS011;34317;51.660;5.824;2023-07-02T10:25:24;12.80;;;4.95;;
48526;SDS011;34317;51.660;5.824;2023-07-02T10:27:53;11.80;;;4.57;;
48526;SDS011;34317;51.660;5.824;2023-07-02T10:30:30;7.90;;;4.22;;
48526;SDS011;34317;51.660;5.824;2023-07-02T10:33:11;11.45;;;4.40;;
48526;SDS011;34317;51.660;5.824;2023-07-02T10:35:40;14.45;;;4.55;;
48526;SDS011;34317;51.660;5.824;2023-07-02T10:38:15;12.07;;;4.65;;
48526;SDS011;34317;51.660;5.824;2023-07-02T10:40:43;15.38;;;5.00;;
48526;SDS011;34317;51.660;5.824;2023-07-02T10:43:10;12.60;;;4.60;;
48526;SDS011;34317;51.660;5.824;2023-07-02T10:45:38;12.35;;;4.93;;
48526;SDS011;34317;51.660;5.824;2023-07-02T10:48:08;11.23;;;4.80;;
48526;SDS011;34317;51.660;5.824;2023-07-02T10:50:36;14.68;;;4.88;;
48526;SDS011;34317;51.660;5.824;2023-07-02T10:53:03;9.55;;;4.35;;
48526;SDS011;34317;51.660;5.824;2023-07-02T10:55:30;11.63;;;4.90;;
48526;SDS011;34317;51.660;5.824;2023-07-02T10:58:05;10.85;;;5.30;;
48526;SDS011;34317;51.660;5.824;2023-07-02T11:00:49;10.25;;;4.78;;
48526;SDS011;34317;51.660;5.824;2023-07-02T11:03:22;12.68;;;4.90;;
48526;SDS011;34317;51.660;5.824;2023-07-02T11:05:51;12.88;;;5.07;;
48526;SDS011;34317;51.660;5.824;2023-07-02T11:08:20;10.10;;;5.03;;
48526;SDS011;34317;51.660;5.824;2023-07-02T11:11:03;11.30;;;5.32;;
48526;SDS011;34317;51.660;5.824;2023-07-02T11:13:33;10.18;;;4.80;;
48526;SDS011;34317;51.660;5.824;2023-07-02T11:16:00;11.32;;;4.82;;
48526;SDS011;34317;51.660;5.824;2023-07-02T11:18:30;11.48;;;4.97;;
48526;SDS011;34317;51.660;5.824;2023-07-02T11:20:58;9.48;;;5.10;;
48526;SDS011;34317;51.660;5.824;2023-07-02T11:23:36;12.60;;;5.10;;
48526;SDS011;34317;51.660;5.824;2023-07-02T11:26:04;9.65;;;4.85;;
48526;SDS011;34317;51.660;5.824;2023-07-02T11:28:31;11.40;;;5.05;;
48526;SDS011;34317;51.660;5.824;2023-07-02T11:31:00;12.23;;;5.00;;
48526;SDS011;34317;51.660;5.824;2023-07-02T11:33:36;11.35;;;5.20;;
48526;SDS011;34317;51.660;5.824;2023-07-02T11:36:05;12.85;;;5.07;;
48526;SDS011;34317;51.660;5.824;2023-07-02T11:38:33;9.30;;;5.28;;
48526;SDS011;34317;51.660;5.824;2023-07-02T11:41:03;14.18;;;4.88;;
48526;SDS011;34317;51.660;5.824;2023-07-02T11:43:30;12.75;;;5.47;;
48526;SDS011;34317;51.660;5.824;2023-07-02T11:45:58;12.70;;;5.47;;
48526;SDS011;34317;51.660;5.824;2023-07-02T11:48:26;12.00;;;4.95;;
48526;SDS011;34317;51.660;5.824;2023-07-02T11:50:53;9.60;;;5.00;;
48526;SDS011;34317;51.660;5.824;2023-07-02T11:53:21;10.13;;;4.95;;
48526;SDS011;34317;51.660;5.824;2023-07-02T11:55:48;13.63;;;5.28;;
48526;SDS011;34317;51.660;5.824;2023-07-02T11:58:15;11.70;;;5.00;;
48526;SDS011;34317;51.660;5.824;2023-07-02T12:00:42;12.70;;;5.47;;
48526;SDS011;34317;51.660;5.824;2023-07-02T12:03:10;11.77;;;4.80;;
48526;SDS011;34317;51.660;5.824;2023-07-02T12:05:37;14.13;;;5.50;;
48526;SDS011;34317;51.660;5.824;2023-07-02T12:08:04;14.23;;;5.32;;
48526;SDS011;34317;51.660;5.824;2023-07-02T12:10:32;13.30;;;5.57;;
48526;SDS011;34317;51.660;5.824;2023-07-02T12:12:59;12.18;;;5.10;;
48526;SDS011;34317;51.660;5.824;2023-07-02T12:15:26;10.43;;;4.80;;
48526;SDS011;34317;51.660;5.824;2023-07-02T12:17:53;11.02;;;4.55;;
48526;SDS011;34317;51.660;5.824;2023-07-02T12:20:21;9.73;;;4.72;;
48526;SDS011;34317;51.660;5.824;2023-07-02T12:22:48;9.95;;;4.78;;
48526;SDS011;34317;51.660;5.824;2023-07-02T12:25:16;14.77;;;5.28;;
48526;SDS011;34317;51.660;5.824;2023-07-02T12:27:43;11.45;;;4.90;;
48526;SDS011;34317;51.660;5.824;2023-07-02T12:30:10;13.38;;;5.18;;
48526;SDS011;34317;51.660;5.824;2023-07-02T12:32:38;9.85;;;4.60;;
48526;SDS011;34317;51.660;5.824;2023-07-02T12:35:05;11.27;;;4.93;;
48526;SDS011;34317;51.660;5.824;2023-07-02T12:37:33;9.50;;;4.70;;
48526;SDS011;34317;51.660;5.824;2023-07-02T12:40:00;11.82;;;5.40;;
48526;SDS011;34317;51.660;5.824;2023-07-02T12:42:27;11.38;;;4.60;;
48526;SDS011;34317;51.660;5.824;2023-07-02T12:44:55;11.43;;;4.15;;
48526;SDS011;34317;51.660;5.824;2023-07-02T12:47:22;14.88;;;5.53;;
48526;SDS011;34317;51.660;5.824;2023-07-02T12:49:49;12.70;;;5.13;;
48526;SDS011;34317;51.660;5.824;2023-07-02T12:52:16;13.13;;;5.10;;
48526;SDS011;34317;51.660;5.824;2023-07-02T12:54:43;12.32;;;5.13;;
48526;SDS011;34317;51.660;5.824;2023-07-02T12:57:10;10.68;;;4.65;;
48526;SDS011;34317;51.660;5.824;2023-07-02T12:59:38;11.90;;;5.00;;
48526;SDS011;34317;51.660;5.824;2023-07-02T13:02:05;12.95;;;4.40;;
48526;SDS011;34317;51.660;5.824;2023-07-02T13:04:32;11.68;;;4.32;;
48526;SDS011;34317;51.660;5.824;2023-07-02T13:07:00;9.75;;;4.68;;
48526;SDS011;34317;51.660;5.824;2023-07-02T13:09:27;9.25;;;4.32;;
48526;SDS011;34317;51.660;5.824;2023-07-02T13:11:54;10.43;;;3.90;;
48526;SDS011;34317;51.660;5.824;2023-07-02T13:14:21;8.45;;;3.90;;
48526;SDS011;34317;51.660;5.824;2023-07-02T13:16:48;6.65;;;3.45;;
48526;SDS011;34317;51.660;5.824;2023-07-02T13:19:16;8.50;;;3.55;;
48526;SDS011;34317;51.660;5.824;2023-07-02T13:21:43;7.28;;;3.42;;
48526;SDS011;34317;51.660;5.824;2023-07-02T13:24:11;9.10;;;3.50;;
48526;SDS011;34317;51.660;5.824;2023-07-02T13:26:39;7.60;;;3.63;;
48526;SDS011;34317;51.660;5.824;2023-07-02T13:29:07;8.27;;;3.78;;
48526;SDS011;34317;51.660;5.824;2023-07-02T13:31:35;7.45;;;3.47;;
48526;SDS011;34317;51.660;5.824;2023-07-02T13:34:02;6.43;;;3.53;;
48526;SDS011;34317;51.660;5.824;2023-07-02T13:36:29;7.97;;;3.28;;
48526;SDS011;34317;51.660;5.824;2023-07-02T13:38:56;8.98;;;3.50;;
48526;SDS011;34317;51.660;5.824;2023-07-02T13:41:23;8.35;;;3.33;;
48526;SDS011;34317;51.660;5.824;2023-07-02T13:43:51;7.75;;;3.42;;
48526;SDS011;34317;51.660;5.824;2023-07-02T13:46:18;7.45;;;3.20;;
48526;SDS011;34317;51.660;5.824;2023-07-02T13:48:45;7.18;;;3.50;;
48526;SDS011;34317;51.660;5.824;2023-07-02T13:51:12;6.57;;;3.30;;
48526;SDS011;34317;51.660;5.824;2023-07-02T13:53:39;8.10;;;3.30;;
48526;SDS011;34317;51.660;5.824;2023-07-02T13:56:07;7.97;;;3.22;;
48526;SDS011;34317;51.660;5.824;2023-07-02T14:01:23;6.15;;;3.10;;
48526;SDS011;34317;51.660;5.824;2023-07-02T14:03:51;6.05;;;3.03;;
48526;SDS011;34317;51.660;5.824;2023-07-02T14:06:19;9.98;;;3.35;;
48526;SDS011;34317;51.660;5.824;2023-07-02T14:08:47;6.63;;;3.10;;
48526;SDS011;34317;51.660;5.824;2023-07-02T14:11:15;10.48;;;3.30;;
48526;SDS011;34317;51.660;5.824;2023-07-02T14:13:43;6.80;;;3.25;;
48526;SDS011;34317;51.660;5.824;2023-07-02T14:16:10;6.45;;;2.97;;
48526;SDS011;34317;51.660;5.824;2023-07-02T14:18:37;6.50;;;3.00;;
48526;SDS011;34317;51.660;5.824;2023-07-02T14:21:05;9.23;;;3.35;;
48526;SDS011;34317;51.660;5.824;2023-07-02T14:23:33;7.45;;;3.20;;
48526;SDS011;34317;51.660;5.824;2023-07-02T14:26:00;5.95;;;2.88;;
48526;SDS011;34317;51.660;5.824;2023-07-02T14:28:27;6.72;;;2.92;;
48526;SDS011;34317;51.660;5.824;2023-07-02T14:31:00;5.85;;;3.15;;
48526;SDS011;34317;51.660;5.824;2023-07-02T14:33:29;7.20;;;3.05;;
48526;SDS011;34317;51.660;5.824;2023-07-02T14:35:57;6.55;;;3.00;;
48526;SDS011;34317;51.660;5.824;2023-07-02T14:38:24;8.68;;;3.38;;
48526;SDS011;34317;51.660;5.824;2023-07-02T14:40:53;7.13;;;3.20;;
48526;SDS011;34317;51.660;5.824;2023-07-02T14:43:22;7.88;;;3.35;;
48526;SDS011;34317;51.660;5.824;2023-07-02T14:45:52;9.00;;;3.20;;